sensor_id;sensor_type;location;lat;lon;timestamp;pressure;altitude;pressure_sealevel;temperature;humidity
10366;BME280;5229;41.820;23.490;2022-07-10T00:00:17;89944.06;;;14.73;73.63
10366;BME280;5229;41.820;23.490;2022-07-10T00:02:46;89939.94;;;14.72;73.72
10366;BME280;5229;41.820;23.490;2022-07-10T00:05:14;89946.69;;;14.73;73.61
10366;BME280;5229;41.820;23.490;2022-07-10T00:07:41;89934.41;;;14.73;73.37
10366;BME280;5229;41.820;23.490;2022-07-10T00:10:08;89939.94;;;14.72;73.38
10366;BME280;5229;41.820;23.490;2022-07-10T00:12:35;89942.56;;;14.72;73.38
10366;BME280;5229;41.820;23.490;2022-07-10T00:15:02;89938.63;;;14.66;73.14
10366;BME280;5229;41.820;23.490;2022-07-10T00:17:32;89939.97;;;14.60;73.44
10366;BME280;5229;41.820;23.490;2022-07-10T00:19:59;89935.06;;;14.58;73.88
10366;BME280;5229;41.820;23.490;2022-07-10T00:22:27;89933.22;;;14.59;73.80
10366;BME280;5229;41.820;23.490;2022-07-10T00:24:56;89934.84;;;14.63;73.17
10366;BME280;5229;41.820;23.490;2022-07-10T00:27:23;89937.78;;;14.62;73.59
10366;BME280;5229;41.820;23.490;2022-07-10T00:29:54;89935.81;;;14.59;73.26
10366;BME280;5229;41.820;23.490;2022-07-10T00:32:28;89936.06;;;14.54;73.21
10366;BME280;5229;41.820;23.490;2022-07-10T00:35:01;89932.81;;;14.45;73.25
10366;BME280;5229;41.820;23.490;2022-07-10T00:37:39;89929.56;;;14.36;73.75
10366;BME280;5229;41.820;23.490;2022-07-10T00:40:06;89922.38;;;14.33;73.88
10366;BME280;5229;41.820;23.490;2022-07-10T00:42:35;89924.13;;;14.29;74.04
10366;BME280;5229;41.820;23.490;2022-07-10T00:45:06;89928.78;;;14.23;73.85
10366;BME280;5229;41.820;23.490;2022-07-10T00:47:35;89917.78;;;14.18;74.20
10366;BME280;5229;41.820;23.490;2022-07-10T00:50:15;89910.16;;;14.13;74.31
10366;BME280;5229;41.820;23.490;2022-07-10T00:52:59;89908.13;;;14.06;74.31
10366;BME280;5229;41.820;23.490;2022-07-10T00:55:35;89902.13;;;14.06;74.20
10366;BME280;5229;41.820;23.490;2022-07-10T00:58:09;89906.94;;;14.04;74.29
10366;BME280;5229;41.820;23.490;2022-07-10T01:00:49;89902.03;;;14.02;74.40
10366;BME280;5229;41.820;23.490;2022-07-10T01:03:26;89901.25;;;14.02;74.18
10366;BME280;5229;41.820;23.490;2022-07-10T01:08:41;89888.00;;;13.95;74.25
10366;BME280;5229;41.820;23.490;2022-07-10T01:11:12;89880.88;;;13.92;74.38
10366;BME280;5229;41.820;23.490;2022-07-10T01:13:48;89884.97;;;13.93;74.34
10366;BME280;5229;41.820;23.490;2022-07-10T01:16:20;89887.25;;;13.94;74.42
10366;BME280;5229;41.820;23.490;2022-07-10T01:18:53;89880.41;;;14.02;74.15
10366;BME280;5229;41.820;23.490;2022-07-10T01:21:32;89879.13;;;13.96;74.09
10366;BME280;5229;41.820;23.490;2022-07-10T01:24:08;89875.84;;;13.99;74.02
10366;BME280;5229;41.820;23.490;2022-07-10T01:26:38;89880.00;;;14.00;73.89
10366;BME280;5229;41.820;23.490;2022-07-10T01:29:09;89883.00;;;14.02;73.66
10366;BME280;5229;41.820;23.490;2022-07-10T01:31:36;89876.94;;;13.98;73.54
10366;BME280;5229;41.820;23.490;2022-07-10T01:34:06;89880.19;;;13.95;73.27
10366;BME280;5229;41.820;23.490;2022-07-10T01:36:37;89873.69;;;13.89;73.36
10366;BME280;5229;41.820;23.490;2022-07-10T01:39:05;89872.38;;;13.83;73.32
10366;BME280;5229;41.820;23.490;2022-07-10T01:41:34;89863.56;;;13.75;73.82
10366;BME280;5229;41.820;23.490;2022-07-10T01:44:01;89862.59;;;13.68;73.97
10366;BME280;5229;41.820;23.490;2022-07-10T01:46:28;89853.91;;;13.64;74.17
10366;BME280;5229;41.820;23.490;2022-07-10T01:48:55;89855.63;;;13.60;73.79
10366;BME280;5229;41.820;23.490;2022-07-10T01:51:22;89850.31;;;13.56;73.80
10366;BME280;5229;41.820;23.490;2022-07-10T01:53:50;89863.66;;;13.55;73.79
10366;BME280;5229;41.820;23.490;2022-07-10T01:56:17;89862.16;;;13.54;74.37
10366;BME280;5229;41.820;23.490;2022-07-10T01:58:44;89851.91;;;13.49;73.75
10366;BME280;5229;41.820;23.490;2022-07-10T02:01:11;89859.63;;;13.45;74.10
10366;BME280;5229;41.820;23.490;2022-07-10T02:03:38;89857.69;;;13.42;74.01
10366;BME280;5229;41.820;23.490;2022-07-10T02:06:22;89859.09;;;13.40;74.53
10366;BME280;5229;41.820;23.490;2022-07-10T02:08:51;89855.28;;;13.37;74.77
10366;BME280;5229;41.820;23.490;2022-07-10T02:11:17;89852.56;;;13.34;74.56
10366;BME280;5229;41.820;23.490;2022-07-10T02:13:44;89858.22;;;13.36;74.48
10366;BME280;5229;41.820;23.490;2022-07-10T02:16:11;89858.31;;;13.39;74.59
10366;BME280;5229;41.820;23.490;2022-07-10T02:18:38;89856.47;;;13.40;74.74
10366;BME280;5229;41.820;23.490;2022-07-10T02:21:05;89848.22;;;13.38;74.22
10366;BME280;5229;41.820;23.490;2022-07-10T02:23:32;89846.72;;;13.37;74.63
10366;BME280;5229;41.820;23.490;2022-07-10T02:26:01;89848.88;;;13.35;74.63
10366;BME280;5229;41.820;23.490;2022-07-10T02:28:28;89849.06;;;13.30;74.75
10366;BME280;5229;41.820;23.490;2022-07-10T02:30:55;89851.13;;;13.24;74.48
10366;BME280;5229;41.820;23.490;2022-07-10T02:33:22;89851.78;;;13.21;74.89
10366;BME280;5229;41.820;23.490;2022-07-10T02:35:49;89853.59;;;13.21;74.84
10366;BME280;5229;41.820;23.490;2022-07-10T02:38:16;89870.78;;;13.22;75.26
10366;BME280;5229;41.820;23.490;2022-07-10T02:40:43;89862.75;;;13.27;74.45
10366;BME280;5229;41.820;23.490;2022-07-10T02:43:11;89869.28;;;13.33;74.71
10366;BME280;5229;41.820;23.490;2022-07-10T02:45:38;89872.63;;;13.33;74.71
10366;BME280;5229;41.820;23.490;2022-07-10T02:48:05;89877.09;;;13.33;74.72
10366;BME280;5229;41.820;23.490;2022-07-10T02:50:32;89882.63;;;13.31;74.69
10366;BME280;5229;41.820;23.490;2022-07-10T02:52:59;89880.78;;;13.32;74.36
10366;BME280;5229;41.820;23.490;2022-07-10T02:55:26;89876.94;;;13.29;74.78
10366;BME280;5229;41.820;23.490;2022-07-10T02:57:53;89868.41;;;13.29;74.29
10366;BME280;5229;41.820;23.490;2022-07-10T03:00:21;89871.63;;;13.26;74.62
10366;BME280;5229;41.820;23.490;2022-07-10T03:02:48;89871.97;;;13.24;74.86
10366;BME280;5229;41.820;23.490;2022-07-10T03:05:14;89875.34;;;13.25;75.22
10366;BME280;5229;41.820;23.490;2022-07-10T03:07:41;89876.94;;;13.29;74.98
10366;BME280;5229;41.820;23.490;2022-07-10T03:10:09;89869.59;;;13.31;74.42
10366;BME280;5229;41.820;23.490;2022-07-10T03:12:36;89873.38;;;13.34;74.07
10366;BME280;5229;41.820;23.490;2022-07-10T03:15:04;89874.81;;;13.31;74.38
10366;BME280;5229;41.820;23.490;2022-07-10T03:17:33;89874.03;;;13.31;74.47
10366;BME280;5229;41.820;23.490;2022-07-10T03:20:00;89866.66;;;13.33;74.41
10366;BME280;5229;41.820;23.490;2022-07-10T03:22:27;89871.25;;;13.36;73.87
10366;BME280;5229;41.820;23.490;2022-07-10T03:24:54;89872.44;;;13.38;74.26
10366;BME280;5229;41.820;23.490;2022-07-10T03:27:21;89872.22;;;13.43;74.29
10366;BME280;5229;41.820;23.490;2022-07-10T03:29:48;89870.94;;;13.49;74.22
10366;BME280;5229;41.820;23.490;2022-07-10T03:32:15;89874.09;;;13.55;73.64
10366;BME280;5229;41.820;23.490;2022-07-10T03:34:43;89876.47;;;13.60;73.75
10366;BME280;5229;41.820;23.490;2022-07-10T03:37:10;89876.06;;;13.70;74.04
10366;BME280;5229;41.820;23.490;2022-07-10T03:39:37;89871.59;;;13.82;73.84
10366;BME280;5229;41.820;23.490;2022-07-10T03:42:04;89880.63;;;13.97;73.87
10366;BME280;5229;41.820;23.490;2022-07-10T03:44:32;89882.38;;;14.05;73.47
10366;BME280;5229;41.820;23.490;2022-07-10T03:46:59;89888.78;;;14.07;73.44
10366;BME280;5229;41.820;23.490;2022-07-10T03:49:26;89888.44;;;14.09;73.39
10366;BME280;5229;41.820;23.490;2022-07-10T03:51:54;89894.19;;;14.14;73.68
10366;BME280;5229;41.820;23.490;2022-07-10T03:54:21;89891.19;;;14.24;73.36
10366;BME280;5229;41.820;23.490;2022-07-10T03:56:48;89884.56;;;14.39;73.34
10366;BME280;5229;41.820;23.490;2022-07-10T03:59:32;89884.63;;;14.54;73.07
10366;BME280;5229;41.820;23.490;2022-07-10T04:01:59;89882.75;;;14.67;72.86
10366;BME280;5229;41.820;23.490;2022-07-10T04:04:26;89893.59;;;14.81;72.33
10366;BME280;5229;41.820;23.490;2022-07-10T04:06:54;89885.25;;;15.03;72.88
10366;BME280;5229;41.820;23.490;2022-07-10T04:09:21;89885.56;;;15.29;72.30
10366;BME280;5229;41.820;23.490;2022-07-10T04:11:48;89881.44;;;15.56;71.75
10366;BME280;5229;41.820;23.490;2022-07-10T04:14:15;89879.03;;;15.78;71.48
10366;BME280;5229;41.820;23.490;2022-07-10T04:16:41;89871.94;;;15.94;71.22
10366;BME280;5229;41.820;23.490;2022-07-10T04:19:08;89869.00;;;16.11;71.21
10366;BME280;5229;41.820;23.490;2022-07-10T04:21:35;89871.22;;;16.28;70.47
10366;BME280;5229;41.820;23.490;2022-07-10T04:24:04;89872.78;;;16.45;69.86
10366;BME280;5229;41.820;23.490;2022-07-10T04:26:31;89874.94;;;16.58;70.21
10366;BME280;5229;41.820;23.490;2022-07-10T04:28:58;89874.56;;;16.75;69.55
10366;BME280;5229;41.820;23.490;2022-07-10T04:31:24;89877.31;;;17.01;69.78
10366;BME280;5229;41.820;23.490;2022-07-10T04:33:51;89880.34;;;17.22;69.17
10366;BME280;5229;41.820;23.490;2022-07-10T04:36:18;89876.19;;;17.40;69.07
10366;BME280;5229;41.820;23.490;2022-07-10T04:38:45;89889.31;;;17.60;68.62
10366;BME280;5229;41.820;23.490;2022-07-10T04:41:13;89890.03;;;17.79;68.01
10366;BME280;5229;41.820;23.490;2022-07-10T04:43:40;89888.06;;;17.95;67.83
10366;BME280;5229;41.820;23.490;2022-07-10T04:46:06;89885.03;;;18.16;67.39
10366;BME280;5229;41.820;23.490;2022-07-10T04:48:33;89888.00;;;18.37;66.95
10366;BME280;5229;41.820;23.490;2022-07-10T04:51:00;89898.84;;;18.58;66.12
10366;BME280;5229;41.820;23.490;2022-07-10T04:53:27;89896.50;;;18.79;65.82
10366;BME280;5229;41.820;23.490;2022-07-10T04:55:54;89891.97;;;19.02;65.29
10366;BME280;5229;41.820;23.490;2022-07-10T04:58:22;89897.50;;;19.23;64.42
10366;BME280;5229;41.820;23.490;2022-07-10T05:00:49;89893.22;;;19.41;64.15
10366;BME280;5229;41.820;23.490;2022-07-10T05:03:15;89897.94;;;19.58;63.81
10366;BME280;5229;41.820;23.490;2022-07-10T05:05:42;89896.97;;;19.76;63.28
10366;BME280;5229;41.820;23.490;2022-07-10T05:08:09;89895.63;;;19.93;62.61
10366;BME280;5229;41.820;23.490;2022-07-10T05:10:36;89895.78;;;20.07;62.13
10366;BME280;5229;41.820;23.490;2022-07-10T05:13:03;89892.50;;;20.13;61.92
10366;BME280;5229;41.820;23.490;2022-07-10T05:15:31;89889.56;;;20.22;61.69
10366;BME280;5229;41.820;23.490;2022-07-10T05:17:58;89890.44;;;20.37;61.31
10366;BME280;5229;41.820;23.490;2022-07-10T05:20:25;89887.53;;;20.52;61.00
10366;BME280;5229;41.820;23.490;2022-07-10T05:22:55;89882.78;;;20.72;60.50
10366;BME280;5229;41.820;23.490;2022-07-10T05:25:24;89878.38;;;20.90;59.98
10366;BME280;5229;41.820;23.490;2022-07-10T05:27:55;89874.75;;;21.12;59.47
10366;BME280;5229;41.820;23.490;2022-07-10T05:30:24;89881.66;;;21.34;58.85
10366;BME280;5229;41.820;23.490;2022-07-10T05:32:55;89879.47;;;21.53;58.36
10366;BME280;5229;41.820;23.490;2022-07-10T05:35:26;89880.28;;;21.71;57.96
10366;BME280;5229;41.820;23.490;2022-07-10T05:37:55;89880.72;;;21.87;57.39
10366;BME280;5229;41.820;23.490;2022-07-10T05:40:26;89875.88;;;22.03;56.94
10366;BME280;5229;41.820;23.490;2022-07-10T05:42:54;89886.03;;;22.01;56.77
10366;BME280;5229;41.820;23.490;2022-07-10T05:45:33;89873.19;;;21.93;56.71
10366;BME280;5229;41.820;23.490;2022-07-10T05:48:07;89880.00;;;21.87;57.02
10366;BME280;5229;41.820;23.490;2022-07-10T05:50:35;89880.72;;;21.87;56.69
10366;BME280;5229;41.820;23.490;2022-07-10T05:53:11;89889.03;;;21.82;56.66
10366;BME280;5229;41.820;23.490;2022-07-10T05:56:02;89882.91;;;21.68;56.76
10366;BME280;5229;41.820;23.490;2022-07-10T05:58:38;89889.72;;;21.69;56.99
10366;BME280;5229;41.820;23.490;2022-07-10T06:01:21;89888.63;;;21.73;56.71
10366;BME280;5229;41.820;23.490;2022-07-10T06:03:58;89878.47;;;21.82;56.44
10366;BME280;5229;41.820;23.490;2022-07-10T06:06:29;89874.72;;;21.97;56.38
10366;BME280;5229;41.820;23.490;2022-07-10T06:08:58;89870.22;;;22.12;55.82
10366;BME280;5229;41.820;23.490;2022-07-10T06:11:25;89864.22;;;22.29;55.64
10366;BME280;5229;41.820;23.490;2022-07-10T06:13:54;89858.91;;;22.46;55.25
10366;BME280;5229;41.820;23.490;2022-07-10T06:16:22;89852.16;;;22.66;54.89
10366;BME280;5229;41.820;23.490;2022-07-10T06:18:50;89860.81;;;22.92;54.19
10366;BME280;5229;41.820;23.490;2022-07-10T06:21:17;89864.91;;;23.17;53.80
10366;BME280;5229;41.820;23.490;2022-07-10T06:23:47;89869.41;;;23.45;52.93
10366;BME280;5229;41.820;23.490;2022-07-10T06:26:13;89868.56;;;23.65;52.33
10366;BME280;5229;41.820;23.490;2022-07-10T06:28:40;89863.56;;;23.78;51.51
10366;BME280;5229;41.820;23.490;2022-07-10T06:31:07;89865.41;;;23.91;51.20
10366;BME280;5229;41.820;23.490;2022-07-10T06:33:34;89860.03;;;24.05;50.98
10366;BME280;5229;41.820;23.490;2022-07-10T06:36:03;89859.97;;;24.19;50.04
10366;BME280;5229;41.820;23.490;2022-07-10T06:38:31;89863.66;;;24.36;48.90
10366;BME280;5229;41.820;23.490;2022-07-10T06:40:57;89859.78;;;24.47;48.31
10366;BME280;5229;41.820;23.490;2022-07-10T06:43:24;89860.44;;;24.62;48.46
10366;BME280;5229;41.820;23.490;2022-07-10T06:45:51;89850.13;;;24.74;47.64
10366;BME280;5229;41.820;23.490;2022-07-10T06:48:18;89847.72;;;24.90;47.28
10366;BME280;5229;41.820;23.490;2022-07-10T06:50:45;89850.63;;;25.03;46.27
10366;BME280;5229;41.820;23.490;2022-07-10T06:53:14;89856.94;;;25.16;46.30
10366;BME280;5229;41.820;23.490;2022-07-10T06:55:41;89859.84;;;25.32;46.06
10366;BME280;5229;41.820;23.490;2022-07-10T06:58:08;89855.09;;;25.46;45.43
10366;BME280;5229;41.820;23.490;2022-07-10T07:00:35;89858.38;;;25.61;44.84
10366;BME280;5229;41.820;23.490;2022-07-10T07:03:01;89852.19;;;25.71;45.37
10366;BME280;5229;41.820;23.490;2022-07-10T07:05:29;89853.19;;;25.81;45.49
10366;BME280;5229;41.820;23.490;2022-07-10T07:07:56;89856.16;;;25.86;45.48
10366;BME280;5229;41.820;23.490;2022-07-10T07:10:24;89856.84;;;25.94;45.57
10366;BME280;5229;41.820;23.490;2022-07-10T07:12:51;89855.63;;;26.02;45.63
10366;BME280;5229;41.820;23.490;2022-07-10T07:15:18;89855.13;;;26.10;45.74
10366;BME280;5229;41.820;23.490;2022-07-10T07:17:48;89858.88;;;26.13;46.08
10366;BME280;5229;41.820;23.490;2022-07-10T07:20:33;89854.97;;;26.21;46.21
10366;BME280;5229;41.820;23.490;2022-07-10T07:23:17;89856.44;;;26.25;45.82
10366;BME280;5229;41.820;23.490;2022-07-10T07:25:45;89865.47;;;26.31;45.63
10366;BME280;5229;41.820;23.490;2022-07-10T07:28:13;89855.47;;;26.39;45.54
10366;BME280;5229;41.820;23.490;2022-07-10T07:30:43;89858.78;;;26.46;45.97
10366;BME280;5229;41.820;23.490;2022-07-10T07:33:09;89852.91;;;26.58;45.66
10366;BME280;5229;41.820;23.490;2022-07-10T07:35:36;89851.91;;;26.75;45.37
10366;BME280;5229;41.820;23.490;2022-07-10T07:38:04;89853.91;;;26.94;44.92
10366;BME280;5229;41.820;23.490;2022-07-10T07:40:31;89853.56;;;27.12;44.68
10366;BME280;5229;41.820;23.490;2022-07-10T07:43:00;89863.97;;;27.29;44.78
10366;BME280;5229;41.820;23.490;2022-07-10T07:45:27;89859.88;;;27.44;43.75
10366;BME280;5229;41.820;23.490;2022-07-10T07:47:55;89865.22;;;27.44;43.83
10366;BME280;5229;41.820;23.490;2022-07-10T07:50:23;89864.13;;;27.42;44.18
10366;BME280;5229;41.820;23.490;2022-07-10T07:52:51;89865.09;;;27.51;43.80
10366;BME280;5229;41.820;23.490;2022-07-10T07:55:19;89862.16;;;27.65;43.39
10366;BME280;5229;41.820;23.490;2022-07-10T07:57:47;89859.22;;;27.79;43.08
10366;BME280;5229;41.820;23.490;2022-07-10T08:00:16;89857.03;;;27.94;42.45
10366;BME280;5229;41.820;23.490;2022-07-10T08:02:44;89851.75;;;28.10;42.24
10366;BME280;5229;41.820;23.490;2022-07-10T08:05:10;89864.44;;;28.22;41.59
10366;BME280;5229;41.820;23.490;2022-07-10T08:07:39;89852.03;;;28.16;41.38
10366;BME280;5229;41.820;23.490;2022-07-10T08:10:09;89856.84;;;28.21;41.86
10366;BME280;5229;41.820;23.490;2022-07-10T08:12:36;89849.06;;;28.30;41.63
10366;BME280;5229;41.820;23.490;2022-07-10T08:15:05;89850.94;;;28.49;40.52
10366;BME280;5229;41.820;23.490;2022-07-10T08:17:34;89849.34;;;28.51;39.69
10366;BME280;5229;41.820;23.490;2022-07-10T08:20:01;89844.47;;;28.50;40.28
10366;BME280;5229;41.820;23.490;2022-07-10T08:22:28;89857.03;;;28.49;39.84
10366;BME280;5229;41.820;23.490;2022-07-10T08:24:55;89851.97;;;28.55;39.64
10366;BME280;5229;41.820;23.490;2022-07-10T08:27:22;89855.28;;;28.59;39.48
10366;BME280;5229;41.820;23.490;2022-07-10T08:29:49;89855.63;;;28.61;39.17
10366;BME280;5229;41.820;23.490;2022-07-10T08:32:17;89853.63;;;28.65;39.71
10366;BME280;5229;41.820;23.490;2022-07-10T08:34:45;89846.28;;;28.69;39.23
10366;BME280;5229;41.820;23.490;2022-07-10T08:37:13;89850.28;;;28.77;39.18
10366;BME280;5229;41.820;23.490;2022-07-10T08:39:40;89849.22;;;28.74;39.39
10366;BME280;5229;41.820;23.490;2022-07-10T08:42:07;89851.56;;;28.88;39.41
10366;BME280;5229;41.820;23.490;2022-07-10T08:44:37;89847.88;;;29.30;38.85
10366;BME280;5229;41.820;23.490;2022-07-10T08:47:04;89855.22;;;30.12;37.32
10366;BME280;5229;41.820;23.490;2022-07-10T08:49:31;89864.78;;;31.51;34.81
10366;BME280;5229;41.820;23.490;2022-07-10T08:52:04;89860.25;;;32.98;31.74
10366;BME280;5229;41.820;23.490;2022-07-10T08:54:32;89870.56;;;33.49;30.93
10366;BME280;5229;41.820;23.490;2022-07-10T08:57:00;89865.22;;;33.94;30.63
10366;BME280;5229;41.820;23.490;2022-07-10T08:59:28;89875.31;;;33.36;30.35
10366;BME280;5229;41.820;23.490;2022-07-10T09:01:55;89876.06;;;32.35;31.73
10366;BME280;5229;41.820;23.490;2022-07-10T09:04:24;89872.84;;;31.85;32.45
10366;BME280;5229;41.820;23.490;2022-07-10T09:06:53;89869.13;;;31.36;33.29
10366;BME280;5229;41.820;23.490;2022-07-10T09:09:22;89862.09;;;31.51;33.54
10366;BME280;5229;41.820;23.490;2022-07-10T09:11:55;89870.06;;;32.10;32.96
10366;BME280;5229;41.820;23.490;2022-07-10T09:14:22;89867.84;;;32.60;31.89
10366;BME280;5229;41.820;23.490;2022-07-10T09:16:53;89867.03;;;33.12;31.18
10366;BME280;5229;41.820;23.490;2022-07-10T09:19:21;89866.38;;;34.56;29.41
10366;BME280;5229;41.820;23.490;2022-07-10T09:21:50;89876.31;;;35.89;28.31
10366;BME280;5229;41.820;23.490;2022-07-10T09:24:18;89870.94;;;36.04;27.94
10366;BME280;5229;41.820;23.490;2022-07-10T09:26:58;89869.38;;;35.41;28.00
10366;BME280;5229;41.820;23.490;2022-07-10T09:29:29;89869.53;;;34.45;28.65
10366;BME280;5229;41.820;23.490;2022-07-10T09:31:57;89863.97;;;33.59;30.13
10366;BME280;5229;41.820;23.490;2022-07-10T09:34:37;89871.47;;;32.75;31.09
10366;BME280;5229;41.820;23.490;2022-07-10T09:37:20;89859.81;;;31.96;32.07
10366;BME280;5229;41.820;23.490;2022-07-10T09:39:55;89860.66;;;31.25;33.12
10366;BME280;5229;41.820;23.490;2022-07-10T09:42:31;89848.91;;;30.72;33.79
10366;BME280;5229;41.820;23.490;2022-07-10T09:45:15;89852.59;;;30.24;34.69
10366;BME280;5229;41.820;23.490;2022-07-10T09:47:44;89847.50;;;30.01;35.00
10366;BME280;5229;41.820;23.490;2022-07-10T09:50:22;89855.03;;;29.78;35.69
10366;BME280;5229;41.820;23.490;2022-07-10T09:52:52;89850.88;;;29.77;34.93
10366;BME280;5229;41.820;23.490;2022-07-10T09:55:22;89846.28;;;29.90;34.83
10366;BME280;5229;41.820;23.490;2022-07-10T09:58:00;89853.63;;;30.02;34.59
10366;BME280;5229;41.820;23.490;2022-07-10T10:00:30;89847.91;;;30.16;35.35
10366;BME280;5229;41.820;23.490;2022-07-10T10:02:59;89851.66;;;31.19;33.88
10366;BME280;5229;41.820;23.490;2022-07-10T10:05:42;89852.69;;;32.75;31.44
10366;BME280;5229;41.820;23.490;2022-07-10T10:08:17;89857.44;;;33.60;30.26
10366;BME280;5229;41.820;23.490;2022-07-10T10:10:48;89857.59;;;34.01;29.21
10366;BME280;5229;41.820;23.490;2022-07-10T10:13:18;89855.56;;;34.65;28.33
10366;BME280;5229;41.820;23.490;2022-07-10T10:15:47;89854.97;;;35.44;27.67
10366;BME280;5229;41.820;23.490;2022-07-10T10:18:17;89857.28;;;36.74;26.71
10366;BME280;5229;41.820;23.490;2022-07-10T10:20:45;89850.38;;;37.91;25.05
10366;BME280;5229;41.820;23.490;2022-07-10T10:23:13;89850.19;;;38.92;23.87
10366;BME280;5229;41.820;23.490;2022-07-10T10:25:40;89855.16;;;39.55;23.00
10366;BME280;5229;41.820;23.490;2022-07-10T10:28:10;89858.13;;;40.05;22.63
10366;BME280;5229;41.820;23.490;2022-07-10T10:30:40;89852.41;;;40.62;21.79
10366;BME280;5229;41.820;23.490;2022-07-10T10:33:42;89861.16;;;41.04;21.50
10366;BME280;5229;41.820;23.490;2022-07-10T10:36:12;89863.38;;;41.06;21.55
10366;BME280;5229;41.820;23.490;2022-07-10T10:39:01;89858.41;;;40.82;21.38
10366;BME280;5229;41.820;23.490;2022-07-10T10:41:30;89861.94;;;39.76;22.59
10366;BME280;5229;41.820;23.490;2022-07-10T10:44:26;89856.94;;;38.05;24.26
10366;BME280;5229;41.820;23.490;2022-07-10T10:47:00;89849.50;;;36.82;25.41
10366;BME280;5229;41.820;23.490;2022-07-10T10:49:50;89847.69;;;35.83;26.71
10366;BME280;5229;41.820;23.490;2022-07-10T10:52:18;89848.25;;;35.07;27.36
10366;BME280;5229;41.820;23.490;2022-07-10T10:55:05;89840.97;;;34.12;28.24
10366;BME280;5229;41.820;23.490;2022-07-10T10:57:41;89836.94;;;33.44;29.29
10366;BME280;5229;41.820;23.490;2022-07-10T11:00:32;89828.91;;;32.95;29.70
10366;BME280;5229;41.820;23.490;2022-07-10T11:03:21;89825.78;;;32.36;30.56
10366;BME280;5229;41.820;23.490;2022-07-10T11:05:50;89839.28;;;31.80;31.24
10366;BME280;5229;41.820;23.490;2022-07-10T11:08:40;89831.09;;;31.03;32.69
10366;BME280;5229;41.820;23.490;2022-07-10T11:11:36;89825.00;;;30.52;33.59
10366;BME280;5229;41.820;23.490;2022-07-10T11:14:06;89815.38;;;30.30;34.21
10366;BME280;5229;41.820;23.490;2022-07-10T11:16:33;89817.34;;;30.13;34.20
10366;BME280;5229;41.820;23.490;2022-07-10T11:19:02;89813.16;;;30.12;34.82
10366;BME280;5229;41.820;23.490;2022-07-10T11:21:45;89811.13;;;30.04;34.30
10366;BME280;5229;41.820;23.490;2022-07-10T11:24:24;89805.88;;;30.00;34.05
10366;BME280;5229;41.820;23.490;2022-07-10T11:27:05;89809.88;;;29.80;34.09
10366;BME280;5229;41.820;23.490;2022-07-10T11:29:36;89803.97;;;29.60;34.33
10366;BME280;5229;41.820;23.490;2022-07-10T11:32:05;89796.97;;;29.50;34.40
10366;BME280;5229;41.820;23.490;2022-07-10T11:34:37;89799.06;;;29.42;34.68
10366;BME280;5229;41.820;23.490;2022-07-10T11:37:13;89798.41;;;29.38;35.34
10366;BME280;5229;41.820;23.490;2022-07-10T11:39:40;89798.31;;;29.42;34.59
10366;BME280;5229;41.820;23.490;2022-07-10T11:42:07;89800.38;;;29.22;34.63
10366;BME280;5229;41.820;23.490;2022-07-10T11:44:34;89799.16;;;28.94;35.09
10366;BME280;5229;41.820;23.490;2022-07-10T11:47:04;89798.97;;;28.85;35.19
10366;BME280;5229;41.820;23.490;2022-07-10T11:49:32;89812.09;;;28.80;35.46
10366;BME280;5229;41.820;23.490;2022-07-10T11:52:03;89811.94;;;28.71;35.23
10366;BME280;5229;41.820;23.490;2022-07-10T11:54:30;89799.59;;;28.61;35.96
10366;BME280;5229;41.820;23.490;2022-07-10T11:57:04;89806.47;;;28.58;35.89
10366;BME280;5229;41.820;23.490;2022-07-10T11:59:31;89801.75;;;28.50;35.39
10366;BME280;5229;41.820;23.490;2022-07-10T12:01:58;89800.38;;;28.42;35.90
10366;BME280;5229;41.820;23.490;2022-07-10T12:04:25;89784.94;;;28.33;36.02
10366;BME280;5229;41.820;23.490;2022-07-10T12:06:54;89800.22;;;28.33;36.43
10366;BME280;5229;41.820;23.490;2022-07-10T12:09:24;89803.25;;;28.15;36.94
10366;BME280;5229;41.820;23.490;2022-07-10T12:12:01;89807.19;;;28.11;36.69
10366;BME280;5229;41.820;23.490;2022-07-10T12:14:29;89803.50;;;28.21;36.77
10366;BME280;5229;41.820;23.490;2022-07-10T12:16:56;89804.38;;;28.18;36.33
10366;BME280;5229;41.820;23.490;2022-07-10T12:19:25;89800.22;;;27.97;36.92
10366;BME280;5229;41.820;23.490;2022-07-10T12:21:53;89809.94;;;27.87;37.05
10366;BME280;5229;41.820;23.490;2022-07-10T12:24:23;89818.56;;;27.56;37.25
10366;BME280;5229;41.820;23.490;2022-07-10T12:26:52;89805.00;;;27.27;37.62
10366;BME280;5229;41.820;23.490;2022-07-10T12:29:22;89804.16;;;27.11;37.88
10366;BME280;5229;41.820;23.490;2022-07-10T12:31:50;89814.41;;;26.89;38.32
10366;BME280;5229;41.820;23.490;2022-07-10T12:34:18;89813.25;;;26.67;38.30
10366;BME280;5229;41.820;23.490;2022-07-10T12:36:46;89809.56;;;26.61;38.36
10366;BME280;5229;41.820;23.490;2022-07-10T12:39:14;89812.75;;;26.49;38.90
10366;BME280;5229;41.820;23.490;2022-07-10T12:41:57;89814.59;;;26.29;38.86
10366;BME280;5229;41.820;23.490;2022-07-10T12:44:41;89813.47;;;26.00;40.07
10366;BME280;5229;41.820;23.490;2022-07-10T12:47:10;89810.50;;;25.95;40.36
10366;BME280;5229;41.820;23.490;2022-07-10T12:49:57;89823.13;;;25.87;40.73
10366;BME280;5229;41.820;23.490;2022-07-10T12:52:25;89825.78;;;25.87;40.60
10366;BME280;5229;41.820;23.490;2022-07-10T12:55:09;89832.00;;;25.77;41.05
10366;BME280;5229;41.820;23.490;2022-07-10T12:57:51;89830.53;;;25.73;40.68
10366;BME280;5229;41.820;23.490;2022-07-10T13:00:20;89828.19;;;25.78;41.81
10366;BME280;5229;41.820;23.490;2022-07-10T13:02:47;89837.88;;;25.92;42.04
10366;BME280;5229;41.820;23.490;2022-07-10T13:05:26;89833.28;;;25.96;42.16
10366;BME280;5229;41.820;23.490;2022-07-10T13:07:53;89828.66;;;26.00;42.46
10366;BME280;5229;41.820;23.490;2022-07-10T13:10:31;89830.84;;;26.08;42.84
10366;BME280;5229;41.820;23.490;2022-07-10T13:12:59;89830.50;;;26.06;42.31
10366;BME280;5229;41.820;23.490;2022-07-10T13:15:26;89835.56;;;25.94;42.39
10366;BME280;5229;41.820;23.490;2022-07-10T13:17:54;89831.25;;;25.77;43.23